This is the latest recevied weather packets stored in our database for station/object DL4PY-13. If no packets are shown the sender has not sent any weather packets the latest 10 day(s).
| Time | Temp. | Humidity | Pressure | Rain* | Wind** | Luminosity | Snow |
|---|---|---|---|---|---|---|---|
| 1777880724 | 15.56° C | 69% | 1015.1 hPa | 0 mm | - | - | - |
| 1777880118 | 15° C | 71% | 1015 hPa | 0 mm | - | - | - |
| 1777879817 | 15° C | 73% | 1014.9 hPa | 0 mm | - | - | - |
| 1777820601 | 16.67° C | 64% | 1014.2 hPa | 0 mm | - | - | - |
| 1777819700 | 18.33° C | 55% | 1014.1 hPa | 0 mm | - | - | - |
| 1777818801 | 18.89° C | 51% | 1014 hPa | 0 mm | - | - | - |
| 1777817901 | 19.44° C | 51% | 1013.9 hPa | 0 mm | - | - | - |
| 1777817002 | 19.44° C | 49% | 1013.9 hPa | 0 mm | - | - | - |
| 1777816101 | 19.44° C | 49% | 1013.9 hPa | 0 mm | - | - | - |
| 1777815200 | 19.44° C | 46% | 1013.8 hPa | 0 mm | - | - | - |
| 1777814300 | 19.44° C | 48% | 1013.8 hPa | 0 mm | - | - | - |
| 1777813402 | 19.44° C | 49% | 1013.8 hPa | 0 mm | - | - | - |
| 1777812501 | 20° C | 47% | 1013.9 hPa | 0 mm | - | - | - |
| 1777811601 | 19.44° C | 47% | 1013.8 hPa | 0 mm | - | - | - |
| 1777810700 | 20° C | 49% | 1013.8 hPa | 0 mm | - | - | - |
| 1777809802 | 18.89° C | 50% | 1013.9 hPa | 0 mm | - | - | - |
| 1777808901 | 18.89° C | 50% | 1013.9 hPa | 0 mm | - | - | - |
| 1777808000 | 18.89° C | 50% | 1013.9 hPa | 0 mm | - | - | - |
| 1777807101 | 18.89° C | 49% | 1014.1 hPa | 0 mm | - | - | - |
| 1777806200 | 18.89° C | 48% | 1014 hPa | 0 mm | - | - | - |
| 1777805301 | 18.89° C | 47% | 1013.9 hPa | 0 mm | - | - | - |
| 1777804400 | 19.44° C | 46% | 1013.8 hPa | 0 mm | - | - | - |
| 1777803980 | 19.44° C | 45% | 1013.9 hPa | 0 mm | - | - | - |
| 1777803501 | 19.44° C | 45% | 1013.8 hPa | 0 mm | - | - | - |
| 1777803381 | 19.44° C | 45% | 1013.8 hPa | 0 mm | - | - | - |
* Rain latest hour (hover to see other rain measurements)
** Current wind speed in m/s (hover to see current wind gust speed)